Pagrindinis puslapis
METAR-TAF:

METAR-TAF

Oro uostai :

Kaiseris, Turkija

platuma: 38-47N, ilguma: 035-29E, Aukštis: 1053 m

Dabartinis oras

Ataskaita buvo paskelbta 47 minutes, ne 20:20 UTC
Vėjas 1 kt iš Pietų
Temperatūra 2°C
Drėgmė 80%
Slėgis 1016 hPa
Matomumas: 8000 m
Mažai debesys ne aukštis 4000 ft
Su prošvaistėmis ne aukštis 12000 ft

METAR: LTAU 262020Z 18001KT 8000 FEW040 BKN120 02/M01 Q1016 NOSIG RMK RWY07 VRB02KT

Laikas: 00:07 (21:07 UTC)

Prognozė

Ataskaita buvo paskelbta 4 valandos ir 27 minutes, ne 16:40 UTC
Prognozė galioja nuo 26 metu 18 UTC su 27 metu 18 UTC
Vėjas 2 kt nuo kintamojo kryptimis
Matomumas 10 km arba daugiau
Mažai debesys ne aukštis 4000 ft
Su prošvaistėmis ne aukštis 18000 ft
Tapsmas
nuo 27 metu 00 UTC su 27 metu 03 UTC
Vėjas 20 kt iš Pietų/Pietryčių su gūsio iki 35 kt

TAF: LTAU 261640Z 2618/2718 VRB02KT 9999 FEW040 BKN180 BECMG 2700/2703 16020G35KT

Orai ataskaitas ir orų prognozės (METAR, TAF).

turimą stotys yra geltonos ir raudonos taškus žemėlapyje.

Perkelti pele per norėdami pamatyti stoties vardą.

Tada spustelėkite, norėdami matyti oro stebėjimo ir prognozės.

Norėdami pakeisti žemėlapį: spustelėkite ant žalios mygtukų su juodo kryžiaus žemyn,; žalią mygtuką su brūkšneliu, jei norite nutolinti; arba žalių rodyklių gretimoms žemėlapius.


METAR-TAF: